Time;durP1;ratioP1;P1;durP2;ratioP2;P2;SDS_P1;SDS_P2;PMS_P1;PMS_P2;Temp;Humidity;BMP_temperature;BMP_pressure;BME280_temperature;BME280_humidity;BME280_pressure;Samples;Min_cycle;Max_cycle;Signal;HPM_P1;HPM_P2
2022/04/01 00:00:29;;;;;;;1.33;1.00;;;;;;;16.22;45.91;100628.09;5027323;28;20058;-51
2022/04/01 00:02:56;;;;;;;2.28;1.33;;;;;;;16.22;45.99;100632.59;5023433;28;20500;-51
2022/04/01 00:05:22;;;;;;;1.23;0.93;;;;;;;16.21;46.32;100631.75;5025529;28;20510;-51
2022/04/01 00:07:49;;;;;;;1.58;1.20;;;;;;;16.20;45.66;100638.09;5026490;28;20049;-52
2022/04/01 00:10:15;;;;;;;1.20;0.90;;;;;;;16.19;45.83;100643.56;5026782;28;20075;-50
2022/04/01 00:12:44;;;;;;;1.38;1.10;;;;;;;16.20;45.68;100645.25;5030091;28;20045;-53
2022/04/01 00:15:12;;;;;;;1.45;1.00;;;;;;;16.18;46.30;100650.75;5022139;28;20428;-51
2022/04/01 00:17:40;;;;;;;2.63;1.13;;;;;;;16.17;46.18;100653.59;5023232;28;20061;-49
2022/04/01 00:20:09;;;;;;;2.25;0.90;;;;;;;16.15;46.46;100656.38;5029354;28;20047;-47
2022/04/01 00:22:36;;;;;;;0.85;0.80;;;;;;;16.14;46.20;100665.41;5024677;28;20057;-51
2022/04/01 00:25:03;;;;;;;1.40;0.70;;;;;;;16.09;46.28;100657.00;5021719;28;20129;-51
2022/04/01 00:27:30;;;;;;;2.55;1.20;;;;;;;16.11;46.00;100665.69;5025578;28;20049;-47
2022/04/01 00:29:56;;;;;;;1.20;0.80;;;;;;;16.10;46.24;100666.69;5024353;28;20057;-50
2022/04/01 00:32:23;;;;;;;2.97;0.90;;;;;;;16.10;45.64;100666.69;5021665;28;20152;-48
2022/04/01 00:34:51;;;;;;;1.98;1.05;;;;;;;16.09;46.05;100648.13;5023059;28;20046;-49
2022/04/01 00:37:18;;;;;;;1.33;1.15;;;;;;;16.09;45.37;100661.50;5022618;28;20041;-48
2022/04/01 00:39:45;;;;;;;1.92;1.20;;;;;;;16.08;45.59;100666.00;5024614;28;20049;-51
2022/04/01 00:42:12;;;;;;;0.82;0.77;;;;;;;16.09;45.68;100666.84;5023293;28;20753;-50
2022/04/01 00:44:40;;;;;;;1.35;0.90;;;;;;;16.07;46.54;100672.31;5027543;28;20042;-52
2022/04/01 00:47:10;;;;;;;1.00;0.70;;;;;;;16.08;46.15;100671.34;5023908;28;20095;-51
2022/04/01 00:49:38;;;;;;;1.05;0.95;;;;;;;16.07;46.11;100674.16;5023173;28;20169;-51
2022/04/01 00:52:08;;;;;;;1.35;1.00;;;;;;;16.06;45.53;100677.81;5024867;28;20053;-49
2022/04/01 00:54:36;;;;;;;0.70;0.60;;;;;;;16.06;45.93;100684.00;5027693;28;20049;-50
2022/04/01 00:57:08;;;;;;;0.90;0.88;;;;;;;16.04;45.38;100683.31;5026081;28;20546;-51
2022/04/01 00:59:34;;;;;;;0.70;0.70;;;;;;;16.04;45.44;100680.66;5024294;28;20045;-51
2022/04/01 01:02:01;;;;;;;1.20;1.00;;;;;;;16.04;45.80;100694.00;5021802;28;20202;-51
2022/04/01 01:04:28;;;;;;;1.05;0.77;;;;;;;16.01;46.26;100688.94;5027687;28;20399;-52
2022/04/01 01:06:56;;;;;;;0.82;0.73;;;;;;;15.98;45.52;100686.56;5023904;28;20050;-48
2022/04/01 01:09:25;;;;;;;1.65;0.93;;;;;;;15.97;45.66;100691.06;5026401;28;20838;-48
2022/04/01 01:11:53;;;;;;;1.50;0.70;;;;;;;16.00;45.84;100695.25;5025808;28;20128;-48
2022/04/01 01:14:24;;;;;;;0.80;0.73;;;;;;;15.96;45.56;100699.22;5026930;28;20076;-50
2022/04/01 01:16:51;;;;;;;0.93;0.82;;;;;;;15.96;45.13;100686.72;5024650;28;20057;-49
2022/04/01 01:19:18;;;;;;;1.05;0.75;;;;;;;15.95;45.18;100686.84;5025042;28;20037;-51
2022/04/01 01:21:48;;;;;;;0.57;0.50;;;;;;;15.93;45.78;100691.50;5026011;28;20037;-51
2022/04/01 01:24:15;;;;;;;1.05;0.70;;;;;;;15.91;45.57;100696.97;5026367;28;20053;-52
2022/04/01 01:26:51;;;;;;;0.77;0.77;;;;;;;15.89;45.25;100693.63;5026397;28;20045;-51
2022/04/01 01:29:29;;;;;;;0.85;0.70;;;;;;;15.90;45.61;100699.78;5028433;28;20438;-50
2022/04/01 01:31:58;;;;;;;1.23;0.90;;;;;;;15.91;45.34;100693.47;5028104;28;20449;-51
2022/04/01 01:34:27;;;;;;;1.38;0.90;;;;;;;15.89;45.55;100695.44;5027303;28;20071;-50
2022/04/01 01:36:54;;;;;;;0.60;0.50;;;;;;;15.88;45.57;100701.75;5026218;28;20073;-47
2022/04/01 01:39:21;;;;;;;1.75;0.80;;;;;;;15.87;45.13;100702.75;5019520;28;20052;-49
2022/04/01 01:41:49;;;;;;;0.90;0.90;;;;;;;15.87;45.82;100702.75;5025974;28;20091;-50
2022/04/01 01:44:21;;;;;;;1.90;0.80;;;;;;;15.85;45.35;100702.06;5021384;28;20038;-48
2022/04/01 01:46:47;;;;;;;1.05;0.60;;;;;;;15.85;46.46;100710.91;5022211;28;20054;-48
2022/04/01 01:49:14;;;;;;;1.00;0.65;;;;;;;15.84;46.37;100711.03;5027566;28;20052;-50
2022/04/01 01:57:14;;;;;;;1.40;1.10;;;;;;;15.85;45.24;100707.41;5025264;28;20042;-49
2022/04/01 01:59:42;;;;;;;0.63;0.63;;;;;;;15.89;45.13;100712.31;5022849;28;20193;-47
2022/04/01 02:02:08;;;;;;;0.75;0.55;;;;;;;15.93;45.42;100711.06;5024058;28;20132;-49
2022/04/01 02:04:35;;;;;;;1.05;0.70;;;;;;;16.01;45.00;100718.34;5025215;28;20330;-50
2022/04/01 02:07:06;;;;;;;2.28;0.73;;;;;;;16.09;45.84;100721.16;5020860;28;20050;-49
2022/04/01 02:09:33;;;;;;;1.27;0.80;;;;;;;16.16;44.99;100722.28;5025570;28;20530;-49
2022/04/01 02:11:59;;;;;;;2.75;1.00;;;;;;;16.23;45.27;100712.66;5022573;28;20042;-49
2022/04/01 02:14:26;;;;;;;0.60;0.60;;;;;;;16.29;45.28;100714.78;5020516;28;20324;-49
2022/04/01 02:16:53;;;;;;;0.98;0.70;;;;;;;16.37;44.94;100735.44;5022027;28;20145;-49
2022/04/01 02:19:23;;;;;;;1.58;0.80;;;;;;;16.44;45.23;100722.31;5024390;28;20123;-51
2022/04/01 02:21:51;;;;;;;2.25;0.80;;;;;;;16.50;45.54;100722.56;5024427;28;20084;-51
2022/04/01 02:24:22;;;;;;;0.98;0.88;;;;;;;16.57;45.00;100733.53;5021021;28;20446;-53
2022/04/01 02:26:49;;;;;;;1.33;0.60;;;;;;;16.63;44.78;100740.97;5021222;28;20132;-53
2022/04/01 02:29:20;;;;;;;0.88;0.60;;;;;;;16.68;45.09;100740.53;5017651;28;20052;-52
2022/04/01 02:31:49;;;;;;;0.90;0.65;;;;;;;16.73;44.67;100733.78;5026229;28;20132;-51
2022/04/01 02:34:17;;;;;;;1.50;0.85;;;;;;;16.75;44.79;100738.97;5024501;28;20042;-53
2022/04/01 02:36:44;;;;;;;1.33;0.60;;;;;;;16.76;44.39;100736.19;5020837;28;20075;-52
2022/04/01 02:39:10;;;;;;;1.92;0.65;;;;;;;16.78;45.02;100736.03;5027828;28;20050;-51
2022/04/01 02:41:37;;;;;;;3.45;1.00;;;;;;;16.80;45.02;100746.56;5021301;28;20054;-48
2022/04/01 02:44:12;;;;;;;4.10;0.80;;;;;;;16.78;44.32;100736.84;5021117;28;20400;-51
2022/04/01 02:46:44;;;;;;;2.50;0.80;;;;;;;16.77;44.70;100747.72;5020453;28;20091;-51
2022/04/01 02:49:15;;;;;;;0.77;0.60;;;;;;;16.75;44.60;100747.00;5028533;28;20161;-52
2022/04/01 02:51:43;;;;;;;1.98;0.65;;;;;;;16.73;44.22;100757.88;5028426;28;20041;-50
2022/04/01 02:54:10;;;;;;;2.17;0.50;;;;;;;16.70;43.95;100757.28;5020966;28;20051;-50
2022/04/01 02:56:38;;;;;;;1.85;0.70;;;;;;;16.67;43.88;100769.13;5026973;28;20053;-51
2022/04/01 02:59:09;;;;;;;2.60;0.63;;;;;;;16.63;44.88;100764.22;5023787;28;20046;-53
2022/04/01 03:01:38;;;;;;;1.27;0.90;;;;;;;16.59;43.79;100760.97;5024375;28;20046;-52
2022/04/01 03:04:10;;;;;;;3.97;0.55;;;;;;;16.56;44.08;100758.59;5023612;28;20046;-52
2022/04/01 03:06:44;;;;;;;0.70;0.52;;;;;;;16.51;44.67;100764.38;5021846;28;20160;-51
2022/04/01 03:09:11;;;;;;;1.60;0.50;;;;;;;16.50;44.50;100769.88;5028736;28;20103;-49
2022/04/01 03:11:39;;;;;;;0.70;0.60;;;;;;;16.46;44.30;100780.03;5029259;28;20588;-51
2022/04/01 03:14:08;;;;;;;1.48;0.65;;;;;;;16.45;45.21;100777.53;5021809;28;20051;-51
2022/04/01 03:16:37;;;;;;;1.00;0.60;;;;;;;16.42;44.30;100781.31;5029472;28;20062;-50
2022/04/01 03:19:08;;;;;;;1.00;0.70;;;;;;;16.38;44.30;100787.94;5023148;28;20042;-51
2022/04/01 03:21:37;;;;;;;0.98;0.60;;;;;;;16.37;44.46;100785.44;5024803;28;20489;-49
2022/04/01 03:24:04;;;;;;;0.55;0.40;;;;;;;16.33;45.09;100776.00;5023575;28;20137;-51
2022/04/01 03:26:31;;;;;;;0.73;0.50;;;;;;;16.30;44.89;100785.16;5030263;28;20050;-51
2022/04/01 03:29:00;;;;;;;1.88;0.90;;;;;;;16.26;44.83;100795.28;5025365;28;20050;-51
2022/04/01 03:31:28;;;;;;;0.60;0.60;;;;;;;16.29;44.15;100788.81;5021161;28;20428;-52
2022/04/01 03:33:56;;;;;;;2.42;0.52;;;;;;;16.32;44.92;100782.31;5026850;28;20076;-52
2022/04/01 03:36:23;;;;;;;1.40;0.75;;;;;;;16.35;44.87;100788.22;5026936;28;20038;-52
2022/04/01 03:38:50;;;;;;;0.50;0.50;;;;;;;16.40;44.33;100796.69;5027851;28;20450;-51
2022/04/01 03:41:17;;;;;;;2.50;0.90;;;;;;;16.46;44.52;100803.28;5022862;28;20049;-53
2022/04/01 03:43:44;;;;;;;1.33;0.70;;;;;;;16.52;44.33;100805.34;5029218;28;20049;-51
2022/04/01 03:46:13;;;;;;;1.02;0.60;;;;;;;16.59;45.07;100801.13;5025398;28;20045;-51
2022/04/01 03:48:55;;;;;;;0.63;0.50;;;;;;;16.66;45.06;100799.56;5026401;28;20044;-50
2022/04/01 03:51:26;;;;;;;1.77;0.65;;;;;;;16.72;44.65;100804.34;5023425;28;20048;-52
2022/04/01 03:53:58;;;;;;;1.30;0.60;;;;;;;16.80;45.12;100810.81;5025937;28;20052;-53
2022/04/01 03:56:31;;;;;;;2.45;0.80;;;;;;;16.86;44.97;100815.59;5024425;28;20050;-53
2022/04/01 03:59:06;;;;;;;1.90;0.70;;;;;;;16.93;44.95;100822.03;5025844;28;20200;-52
2022/04/01 04:01:35;;;;;;;1.27;0.80;;;;;;;17.00;44.45;100815.97;5022513;28;20124;-51
2022/04/01 04:04:03;;;;;;;1.48;0.73;;;;;;;17.08;44.71;100827.75;5028254;28;20428;-50
2022/04/01 04:06:32;;;;;;;3.25;0.88;;;;;;;17.13;44.26;100828.16;5027080;28;20132;-50
2022/04/01 04:09:01;;;;;;;2.03;1.27;;;;;;;17.18;44.50;100829.41;5021454;28;20224;-49
2022/04/01 04:11:31;;;;;;;5.80;2.60;;;;;;;17.20;44.09;100827.41;5023214;28;20092;-51
2022/04/01 04:14:00;;;;;;;6.18;3.63;;;;;;;17.23;44.58;100832.47;5031263;28;20058;-51
2022/04/01 04:16:36;;;;;;;8.00;4.43;;;;;;;17.24;44.69;100831.47;5023120;28;20059;-49
2022/04/01 04:19:08;;;;;;;9.82;5.10;;;;;;;17.25;43.79;100843.88;5023612;28;20688;-49
2022/04/01 04:21:41;;;;;;;8.98;4.75;;;;;;;17.25;44.18;100846.56;5023974;28;20494;-51
2022/04/01 04:24:17;;;;;;;10.57;5.10;;;;;;;17.24;43.88;100852.88;5027332;28;20140;-52
2022/04/01 04:26:49;;;;;;;12.18;6.28;;;;;;;17.23;44.01;100847.69;5018824;28;20378;-51
2022/04/01 04:29:17;;;;;;;12.95;6.90;;;;;;;17.20;43.45;100856.00;5023127;28;20125;-51
2022/04/01 04:32:05;;;;;;;10.68;6.10;;;;;;;17.15;44.03;100861.81;5022677;28;20585;-52
2022/04/01 04:34:37;;;;;;;16.52;6.82;;;;;;;17.12;43.66;100859.44;5021408;28;20496;-51
2022/04/01 04:37:09;;;;;;;11.70;6.90;;;;;;;17.09;43.72;100865.09;5022223;28;20064;-51
2022/04/01 04:39:38;;;;;;;14.35;7.13;;;;;;;17.05;43.62;100869.06;5023502;28;20397;-51
2022/04/01 04:42:06;;;;;;;13.80;7.07;;;;;;;17.01;43.57;100865.84;5024411;28;20144;-50
2022/04/01 04:44:33;;;;;;;12.60;7.07;;;;;;;16.99;44.29;100885.69;5022844;28;20049;-49
2022/04/01 04:47:02;;;;;;;13.25;7.72;;;;;;;16.94;44.18;100878.13;5025667;28;20055;-52
2022/04/01 04:49:29;;;;;;;14.88;6.85;;;;;;;16.91;43.98;100875.72;5028920;28;20054;-51
2022/04/01 04:51:57;;;;;;;11.15;6.95;;;;;;;16.88;43.48;100888.53;5023864;28;20446;-52
2022/04/01 04:54:25;;;;;;;14.70;6.85;;;;;;;16.83;43.95;100882.78;5022900;28;20054;-51
2022/04/01 04:56:55;;;;;;;11.77;6.93;;;;;;;16.78;44.72;100884.06;5022379;28;20045;-53
2022/04/01 04:59:23;;;;;;;13.05;6.88;;;;;;;16.76;44.33;100903.94;5020796;28;20148;-53
2022/04/01 05:02:06;;;;;;;11.00;6.57;;;;;;;16.70;43.84;100904.47;5021157;28;20141;-47
2022/04/01 05:05:16;;;;;;;11.25;6.72;;;;;;;16.66;44.17;100906.59;5023714;28;20048;-51
2022/04/01 05:08:01;;;;;;;9.85;6.28;;;;;;;16.64;44.27;100913.06;5016697;28;20053;-49
2022/04/01 05:10:31;;;;;;;10.85;6.15;;;;;;;16.62;43.96;100923.09;5028447;28;20041;-49
2022/04/01 05:13:09;;;;;;;11.15;6.40;;;;;;;16.56;43.61;100921.81;5022752;28;20152;-50
2022/04/01 05:15:39;;;;;;;9.10;5.30;;;;;;;16.53;44.73;100930.97;5019520;28;20176;-50
2022/04/01 05:18:16;;;;;;;11.20;5.93;;;;;;;16.49;44.42;100928.75;5020816;28;20140;-49
2022/04/01 05:20:56;;;;;;;9.77;5.20;;;;;;;16.47;44.07;100941.41;5023498;28;20131;-50
2022/04/01 05:23:54;;;;;;;9.27;5.75;;;;;;;16.44;44.68;100936.31;5020306;28;20073;-53
2022/04/01 05:26:25;;;;;;;10.57;6.10;;;;;;;16.41;44.07;100945.50;5020784;28;20294;-47
2022/04/01 05:28:55;;;;;;;9.85;5.72;;;;;;;16.39;44.98;100954.63;5023680;28;20041;-49
2022/04/01 05:31:25;;;;;;;8.93;5.40;;;;;;;16.35;43.82;100951.38;5017640;28;20041;-50
2022/04/01 05:34:03;;;;;;;8.60;5.47;;;;;;;16.33;45.21;100953.38;5020533;28;20049;-51
2022/04/01 05:36:30;;;;;;;8.45;5.05;;;;;;;16.35;45.19;100956.72;5024473;28;20045;-51
2022/04/01 05:38:58;;;;;;;7.43;4.80;;;;;;;16.39;44.10;100968.00;5022074;28;20050;-53
2022/04/01 05:41:25;;;;;;;8.52;5.10;;;;;;;16.43;44.99;100972.94;5019410;28;20136;-51
2022/04/01 05:43:52;;;;;;;9.23;4.60;;;;;;;16.48;44.17;100967.16;5022792;28;20056;-52
2022/04/01 05:46:22;;;;;;;7.55;4.65;;;;;;;16.55;44.39;100979.00;5020614;28;20320;-53
2022/04/01 05:48:50;;;;;;;7.82;5.00;;;;;;;16.60;44.94;100984.75;5022337;28;20377;-52
2022/04/01 05:51:18;;;;;;;8.38;4.75;;;;;;;16.66;44.48;100986.88;5024409;28;20046;-53
2022/04/01 05:53:48;;;;;;;6.70;4.45;;;;;;;16.73;44.78;100987.22;5020669;28;20393;-53
2022/04/01 05:56:14;;;;;;;7.22;4.20;;;;;;;16.81;44.14;100989.19;5022159;28;20374;-52
2022/04/01 05:58:42;;;;;;;7.97;4.65;;;;;;;16.88;44.86;100995.63;5020917;28;20047;-52
2022/04/01 06:01:34;;;;;;;7.03;4.35;;;;;;;16.94;44.05;100995.06;5020022;28;20046;-52
2022/04/01 06:04:36;;;;;;;8.48;4.20;;;;;;;17.00;44.51;101010.56;5022764;28;20069;-49
2022/04/01 06:07:10;;;;;;;9.23;4.28;;;;;;;17.08;44.13;101002.66;5021893;28;20046;-52
2022/04/01 06:09:58;;;;;;;6.05;3.80;;;;;;;17.13;43.49;101016.47;5021154;28;20071;-51
2022/04/01 06:12:53;;;;;;;6.57;4.00;;;;;;;17.18;43.94;101008.84;5017183;28;20132;-53
2022/04/01 06:15:40;;;;;;;5.53;3.50;;;;;;;17.25;43.67;101007.28;5021850;28;20739;-53
2022/04/01 06:18:28;;;;;;;5.60;3.45;;;;;;;17.30;43.57;101016.72;5020811;28;20045;-50
2022/04/01 06:21:00;;;;;;;5.03;3.28;;;;;;;17.35;43.73;101019.81;5024221;28;20077;-52
2022/04/01 06:24:04;;;;;;;5.78;3.60;;;;;;;17.39;43.98;101026.56;5024521;28;20439;-48
2022/04/01 06:26:34;;;;;;;5.72;3.63;;;;;;;17.45;43.69;101031.34;5024280;28;20423;-52
2022/04/01 06:29:16;;;;;;;5.25;3.33;;;;;;;17.49;43.84;101032.75;5022369;28;20552;-52
2022/04/01 06:31:51;;;;;;;4.65;2.70;;;;;;;17.54;43.84;101035.84;5017957;28;20133;-52
2022/04/01 06:34:26;;;;;;;4.32;2.85;;;;;;;17.58;43.64;101042.59;5019742;28;20456;-49
2022/04/01 06:37:05;;;;;;;4.55;2.78;;;;;;;17.63;43.35;101043.00;5020497;28;20057;-53
2022/04/01 06:39:41;;;;;;;5.60;3.17;;;;;;;17.66;43.29;101037.34;5018952;28;20048;-53
2022/04/01 06:42:12;;;;;;;5.22;2.80;;;;;;;17.70;43.31;101052.16;5019236;28;20140;-49
2022/04/01 06:44:38;;;;;;;4.40;2.53;;;;;;;17.74;43.09;101050.88;5019264;28;20422;-52
2022/04/01 06:47:05;;;;;;;3.80;2.40;;;;;;;17.78;43.19;101050.59;5015958;28;20049;-50
2022/04/01 06:49:31;;;;;;;4.60;2.45;;;;;;;17.82;43.08;101060.88;5027452;28;20321;-51
2022/04/01 06:52:02;;;;;;;3.55;2.30;;;;;;;17.84;43.37;101058.88;5027238;28;20049;-50
2022/04/01 06:54:29;;;;;;;3.30;2.38;;;;;;;17.90;42.93;101066.34;5018177;28;20313;-52
2022/04/01 06:56:55;;;;;;;4.55;2.67;;;;;;;17.92;43.46;101060.84;5022235;28;20508;-50
2022/04/01 06:59:22;;;;;;;3.33;2.10;;;;;;;17.96;42.85;101056.88;5023639;28;20057;-50
2022/04/01 07:01:48;;;;;;;3.58;1.95;;;;;;;18.00;43.07;101064.47;5015370;28;20141;-53
2022/04/01 07:04:15;;;;;;;3.60;2.15;;;;;;;18.04;43.27;101069.53;5021835;28;20441;-51
2022/04/01 07:06:41;;;;;;;3.72;2.08;;;;;;;18.08;43.07;101062.88;5021681;28;20077;-52
2022/04/01 07:09:08;;;;;;;4.10;2.38;;;;;;;18.12;43.07;101062.44;5021301;28;20418;-49
2022/04/01 07:11:35;;;;;;;2.88;1.95;;;;;;;18.16;42.67;101069.19;5026871;28;20054;-52
2022/04/01 07:14:02;;;;;;;4.13;2.28;;;;;;;18.19;42.79;101068.91;5023288;28;20052;-53
2022/04/01 07:16:28;;;;;;;3.95;2.10;;;;;;;18.22;42.79;101073.13;5028683;28;20085;-48
2022/04/01 07:18:56;;;;;;;5.25;2.17;;;;;;;18.28;42.73;101080.56;5029217;28;20046;-52
2022/04/01 07:21:23;;;;;;;2.50;1.70;;;;;;;18.30;42.82;101078.59;5024483;28;20393;-51
2022/04/01 07:23:49;;;;;;;3.33;2.05;;;;;;;18.33;42.91;101075.63;5023144;28;20149;-51
2022/04/01 07:26:16;;;;;;;3.45;1.80;;;;;;;18.37;42.50;101077.00;5024991;28;20042;-51
2022/04/01 07:28:43;;;;;;;4.15;2.08;;;;;;;18.41;42.58;101080.22;5024967;28;20129;-50
2022/04/01 07:34:23;;;;;;;3.05;1.85;;;;;;;18.47;42.76;101087.69;5024648;28;20045;-48
2022/04/01 07:36:49;;;;;;;2.10;1.50;;;;;;;18.47;42.51;101087.69;5024971;28;20084;-50
2022/04/01 07:39:16;;;;;;;2.35;1.38;;;;;;;18.47;42.50;101090.34;5027630;28;20129;-52
2022/04/01 07:41:43;;;;;;;2.42;1.35;;;;;;;18.47;42.74;101088.50;5026961;28;20389;-51
2022/04/01 07:44:09;;;;;;;5.28;1.75;;;;;;;18.45;42.84;101082.47;5022830;28;20129;-51
2022/04/01 07:46:36;;;;;;;2.15;1.40;;;;;;;18.43;42.38;101091.66;5024800;28;20095;-52
2022/04/01 07:49:03;;;;;;;3.38;1.70;;;;;;;18.42;42.07;101092.66;5021378;28;20076;-52
2022/04/01 07:51:29;;;;;;;1.90;1.40;;;;;;;18.40;42.96;101098.16;5023515;28;20050;-50
2022/04/01 07:53:56;;;;;;;4.28;1.58;;;;;;;18.37;42.72;101097.59;5026365;28;20128;-52
2022/04/01 07:56:30;;;;;;;2.58;1.40;;;;;;;18.34;42.81;101100.63;5021819;28;20157;-52
2022/04/01 07:59:00;;;;;;;2.20;1.40;;;;;;;18.30;43.20;101101.91;5023566;28;20041;-51
2022/04/01 08:01:29;;;;;;;3.03;1.80;;;;;;;18.28;42.86;101110.09;5022495;28;20496;-51
2022/04/01 08:03:55;;;;;;;2.50;1.30;;;;;;;18.24;43.07;101103.31;5023783;28;20054;-52
2022/04/01 08:06:22;;;;;;;2.42;1.30;;;;;;;18.22;43.14;101111.53;5021622;28;20050;-48
2022/04/01 08:08:48;;;;;;;2.10;1.10;;;;;;;18.20;43.00;101115.34;5026808;28;20290;-51
2022/04/01 08:11:15;;;;;;;1.90;1.08;;;;;;;18.18;42.85;101112.81;5020465;28;20205;-51
2022/04/01 08:13:42;;;;;;;3.10;1.30;;;;;;;18.15;43.14;101121.16;5017224;28;20052;-50
2022/04/01 08:16:11;;;;;;;1.85;1.20;;;;;;;18.14;43.65;101124.00;5021680;28;20397;-50
2022/04/01 08:18:38;;;;;;;2.15;1.30;;;;;;;18.11;42.98;101117.09;5023649;28;20079;-53
2022/04/01 08:21:05;;;;;;;1.50;1.13;;;;;;;18.08;43.01;101119.22;5023669;28;20328;-51
2022/04/01 08:23:35;;;;;;;1.63;1.10;;;;;;;18.06;43.10;101132.78;5022801;28;20041;-51
2022/04/01 08:26:02;;;;;;;2.17;1.23;;;;;;;18.05;42.91;101131.09;5025984;28;20471;-52
2022/04/01 08:28:29;;;;;;;1.83;1.20;;;;;;;18.03;43.15;101146.47;5026940;28;20041;-52
2022/04/01 08:30:56;;;;;;;2.10;1.05;;;;;;;18.01;42.81;101145.78;5020098;28;20136;-52
2022/04/01 08:33:24;;;;;;;2.33;1.30;;;;;;;18.00;43.00;101144.91;5014806;28;20049;-51
2022/04/01 08:35:51;;;;;;;2.25;1.10;;;;;;;18.01;43.18;101145.78;5023547;28;20045;-50
2022/04/01 08:38:19;;;;;;;1.95;1.00;;;;;;;18.02;42.93;101152.84;5021890;28;20133;-52
2022/04/01 08:40:46;;;;;;;2.20;0.90;;;;;;;18.06;42.71;101153.41;5023571;28;20056;-53
2022/04/01 08:43:22;;;;;;;1.30;0.90;;;;;;;18.09;43.01;101164.69;5023377;28;20607;-53
2022/04/01 08:45:49;;;;;;;1.38;0.80;;;;;;;18.12;42.89;101150.97;5018521;28;20120;-53
2022/04/01 08:48:15;;;;;;;1.83;0.98;;;;;;;18.16;42.73;101168.44;5024707;28;20483;-51
2022/04/01 08:50:42;;;;;;;1.83;0.80;;;;;;;18.20;42.57;101169.00;5024837;28;20208;-49
2022/04/01 08:53:08;;;;;;;1.42;0.70;;;;;;;18.22;42.71;101181.28;5022575;28;20117;-52
2022/04/01 08:55:35;;;;;;;1.20;0.80;;;;;;;18.26;42.84;101176.47;5025919;28;20051;-50
2022/04/01 08:58:03;;;;;;;3.30;0.90;;;;;;;18.29;42.92;101184.25;5019358;28;20087;-51
2022/04/01 09:00:30;;;;;;;1.98;1.00;;;;;;;18.32;42.94;101185.78;5022055;28;20041;-49
2022/04/01 09:03:02;;;;;;;2.42;1.02;;;;;;;18.34;42.77;101187.31;5020196;28;21461;-51
2022/04/01 09:05:29;;;;;;;1.40;0.90;;;;;;;18.38;42.81;101191.41;5022177;28;20046;-50
2022/04/01 09:08:03;;;;;;;2.67;0.90;;;;;;;18.42;42.19;101200.00;5023799;28;20049;-50
2022/04/01 09:10:31;;;;;;;2.10;0.90;;;;;;;18.44;42.55;101200.69;5019798;28;20045;-50
2022/04/01 09:12:58;;;;;;;1.17;0.90;;;;;;;18.47;42.49;101200.41;5021779;28;20045;-48
2022/04/01 09:15:39;;;;;;;1.38;0.90;;;;;;;18.49;42.39;101223.44;5017708;28;20037;-52
2022/04/01 09:18:06;;;;;;;1.25;0.90;;;;;;;18.52;42.44;101214.22;5020212;28;20061;-49
2022/04/01 09:20:50;;;;;;;1.48;0.90;;;;;;;18.55;42.66;101208.56;5021409;28;20050;-48
2022/04/01 09:23:24;;;;;;;1.35;0.90;;;;;;;18.59;42.96;101211.78;5025625;28;20114;-53
2022/04/01 09:25:52;;;;;;;1.52;0.88;;;;;;;18.62;42.11;101214.19;5022344;28;20131;-50
2022/04/01 09:28:29;;;;;;;1.50;0.82;;;;;;;18.63;42.35;101215.88;5019111;28;20152;-52
2022/04/01 09:31:10;;;;;;;2.40;1.00;;;;;;;18.66;42.41;101220.97;5021710;28;20133;-52
2022/04/01 09:33:57;;;;;;;1.55;0.70;;;;;;;18.69;42.28;101223.31;5023917;28;20050;-51
2022/04/01 09:36:29;;;;;;;1.13;0.70;;;;;;;18.69;42.07;101234.94;5019953;28;20048;-53
2022/04/01 09:39:04;;;;;;;2.08;0.90;;;;;;;18.70;42.63;101233.13;5019705;28;20144;-51
2022/04/01 09:41:52;;;;;;;1.98;1.10;;;;;;;18.70;41.96;101239.34;5024667;28;20049;-50
2022/04/01 09:44:34;;;;;;;1.02;0.68;;;;;;;18.69;42.42;101243.00;5022941;28;20428;-52
2022/04/01 09:47:07;;;;;;;1.67;0.70;;;;;;;18.70;42.22;101247.38;5016115;28;20049;-52
2022/04/01 09:49:38;;;;;;;0.73;0.60;;;;;;;18.72;41.93;101247.22;5022090;28;20045;-53
2022/04/01 09:52:16;;;;;;;1.00;0.90;;;;;;;18.74;42.42;101251.47;5019124;28;20048;-53
2022/04/01 09:54:52;;;;;;;1.05;0.70;;;;;;;18.77;42.07;101252.16;5022451;28;20046;-51
2022/04/01 09:57:21;;;;;;;1.95;0.70;;;;;;;18.79;41.67;101259.06;5020173;28;20042;-52
2022/04/01 09:59:50;;;;;;;1.25;0.65;;;;;;;18.82;42.04;101264.16;5018151;28;20254;-54
2022/04/01 10:02:17;;;;;;;1.17;0.60;;;;;;;18.85;42.05;101268.38;5019311;28;20539;-52
2022/04/01 10:04:44;;;;;;;2.10;0.88;;;;;;;18.87;42.04;101263.72;5021796;28;20139;-52
2022/04/01 10:07:11;;;;;;;1.52;0.85;;;;;;;18.90;41.27;101252.66;5022078;28;20052;-50
2022/04/01 10:09:39;;;;;;;2.15;0.85;;;;;;;18.94;41.94;101262.13;5019686;28;20072;-53
2022/04/01 10:12:28;;;;;;;2.63;0.77;;;;;;;18.97;41.82;101262.69;5017863;28;20058;-52
2022/04/01 10:14:59;;;;;;;3.10;0.90;;;;;;;18.98;41.68;101258.16;5018004;28;20125;-52
2022/04/01 10:17:47;;;;;;;1.23;0.70;;;;;;;18.98;41.60;101271.56;5018737;28;20064;-52
2022/04/01 10:20:18;;;;;;;7.10;0.98;;;;;;;18.94;41.22;101259.44;5021027;28;20096;-54
2022/04/01 10:22:45;;;;;;;1.10;0.93;;;;;;;18.91;41.20;101267.78;5019485;28;20650;-51
2022/04/01 10:25:29;;;;;;;5.35;0.93;;;;;;;18.87;41.31;101277.97;5018510;28;20049;-51
2022/04/01 10:27:57;;;;;;;;;;;;;;;18.89;41.36;101275.13;5022809;28;20387;-50
2022/04/01 10:30:25;;;;;;;17.08;2.25;;;;;;;18.94;41.38;101279.09;5016661;28;19952;-49
2022/04/01 10:32:52;;;;;;;10.13;1.80;;;;;;;18.95;41.44;101288.81;5020734;28;20650;-54
2022/04/01 10:35:30;;;;;;;11.82;2.03;;;;;;;18.94;41.21;101267.50;5019297;28;20069;-54
2022/04/01 10:38:06;;;;;;;11.15;1.80;;;;;;;18.93;41.10;101281.91;5019214;28;20050;-53
2022/04/01 10:40:35;;;;;;;8.40;1.85;;;;;;;18.93;40.49;101279.22;5020188;28;20045;-51
2022/04/01 10:43:14;;;;;;;15.43;2.33;;;;;;;18.90;40.44;101277.69;5022337;28;20053;-54
2022/04/01 10:45:55;;;;;;;9.55;1.73;;;;;;;18.89;39.95;101269.75;5017277;28;20037;-53
2022/04/01 10:53:56;;;;;;;4.70;1.77;;;;;;;18.79;39.80;101282.41;5023025;28;20060;-50
2022/04/01 10:56:22;;;;;;;4.75;1.83;;;;;;;18.77;40.07;101306.69;5017323;28;20073;-51
2022/04/01 10:59:08;;;;;;;10.35;1.45;;;;;;;18.71;39.13;101297.41;5022970;28;20064;-53
2022/04/01 11:01:37;;;;;;;7.55;1.45;;;;;;;18.69;39.32;101298.50;5022415;28;20456;-52
2022/04/01 11:04:07;;;;;;;4.95;1.65;;;;;;;18.65;39.23;101289.94;5023567;28;20041;-53
2022/04/01 11:07:04;;;;;;;4.22;1.40;;;;;;;18.61;39.46;101293.88;5025953;28;20049;-52
2022/04/01 11:09:37;;;;;;;3.35;1.70;;;;;;;18.59;39.23;101295.03;5022987;28;20045;-50
2022/04/01 11:12:16;;;;;;;4.93;1.80;;;;;;;18.57;39.29;101305.03;5021255;28;20140;-53
2022/04/01 11:14:55;;;;;;;2.63;1.10;;;;;;;18.57;39.12;101310.41;5024812;28;20041;-51
2022/04/01 11:17:23;;;;;;;4.60;1.48;;;;;;;18.55;38.94;101294.47;5021115;28;20085;-48
2022/04/01 11:20:04;;;;;;;3.20;1.15;;;;;;;18.50;38.51;101297.59;5025734;28;20053;-53
2022/04/01 11:22:34;;;;;;;3.35;1.40;;;;;;;18.47;38.78;101297.88;5026166;28;20144;-53
2022/04/01 11:25:01;;;;;;;4.30;1.42;;;;;;;18.45;39.01;101301.69;5025360;28;20045;-53
2022/04/01 11:27:28;;;;;;;2.22;1.20;;;;;;;18.43;38.60;101298.31;5023866;28;20045;-53
2022/04/01 11:30:13;;;;;;;2.17;1.27;;;;;;;18.39;38.61;101302.28;5026753;28;20425;-53
2022/04/01 11:32:43;;;;;;;2.70;1.20;;;;;;;18.39;38.64;101321.06;5021167;28;20041;-50
2022/04/01 11:35:12;;;;;;;2.78;1.30;;;;;;;18.37;38.30;101315.84;5024185;28;20072;-51
2022/04/01 11:37:40;;;;;;;9.43;1.70;;;;;;;18.35;38.69;101315.13;5022928;28;20382;-52
2022/04/01 11:40:26;;;;;;;10.35;1.33;;;;;;;18.34;39.10;101317.97;5022785;28;20049;-50
2022/04/01 11:43:04;;;;;;;5.57;1.10;;;;;;;18.31;38.69;101326.31;5025445;28;20132;-48
2022/04/01 11:45:37;;;;;;;3.45;1.50;;;;;;;18.27;38.12;101316.84;5027252;28;20133;-53
2022/04/01 11:48:41;;;;;;;4.22;1.40;;;;;;;18.18;37.56;101322.09;5022705;28;20317;-53
2022/04/01 11:51:13;;;;;;;;;;;;;;;18.19;38.41;101323.78;4983939;28;20046;-49
2022/04/01 11:53:50;;;;;;;2.05;1.40;;;;;;;18.22;38.79;101334.22;5016962;28;19952;-52
2022/04/01 11:56:18;;;;;;;2.03;1.23;;;;;;;18.23;38.81;101321.66;5017837;28;20038;-48